sensor_id;sensor_type;location;lat;lon;timestamp;pressure;altitude;pressure_sealevel;temperature;humidity
54554;BME280;40450;55.848;-3.572;2023-07-08T00:00:26;99220.68;;;15.04;86.68
54554;BME280;40450;55.848;-3.572;2023-07-08T00:02:51;99214.87;;;15.14;86.23
54554;BME280;40450;55.848;-3.572;2023-07-08T00:05:23;99210.04;;;18.01;78.61
54554;BME280;40450;55.848;-3.572;2023-07-08T00:07:51;99209.60;;;18.95;75.63
54554;BME280;40450;55.848;-3.572;2023-07-08T00:10:24;99211.07;;;19.36;72.43
54554;BME280;40450;55.848;-3.572;2023-07-08T00:12:54;99215.74;;;19.53;73.02
54554;BME280;40450;55.848;-3.572;2023-07-08T00:15:25;99216.04;;;16.92;78.00
54554;BME280;40450;55.848;-3.572;2023-07-08T00:17:53;99217.84;;;16.04;81.43
54554;BME280;40450;55.848;-3.572;2023-07-08T00:20:31;99214.60;;;14.61;86.41
54554;BME280;40450;55.848;-3.572;2023-07-08T00:22:55;99213.48;;;17.76;78.30
54554;BME280;40450;55.848;-3.572;2023-07-08T00:25:25;99209.86;;;17.51;76.42
54554;BME280;40450;55.848;-3.572;2023-07-08T00:27:55;99200.36;;;18.91;73.73
54554;BME280;40450;55.848;-3.572;2023-07-08T00:30:28;99201.71;;;19.34;72.67
54554;BME280;40450;55.848;-3.572;2023-07-08T00:32:57;99198.77;;;19.02;71.51
54554;BME280;40450;55.848;-3.572;2023-07-08T00:35:29;99199.37;;;17.24;75.19
54554;BME280;40450;55.848;-3.572;2023-07-08T00:37:57;99192.82;;;19.12;71.01
54554;BME280;40450;55.848;-3.572;2023-07-08T00:40:29;99199.83;;;19.34;70.30
54554;BME280;40450;55.848;-3.572;2023-07-08T00:42:59;99198.02;;;18.02;73.45
54554;BME280;40450;55.848;-3.572;2023-07-08T00:45:38;99194.66;;;17.77;73.92
54554;BME280;40450;55.848;-3.572;2023-07-08T00:48:07;99191.37;;;18.10;72.98
54554;BME280;40450;55.848;-3.572;2023-07-08T00:50:29;99190.73;;;17.29;74.85
54554;BME280;40450;55.848;-3.572;2023-07-08T00:55:30;99196.51;;;15.17;83.42
54554;BME280;40450;55.848;-3.572;2023-07-08T00:58:00;99192.34;;;16.70;78.78
54554;BME280;40450;55.848;-3.572;2023-07-08T01:00:30;99197.61;;;17.88;76.61
54554;BME280;40450;55.848;-3.572;2023-07-08T01:03:00;99187.03;;;18.61;74.12
54554;BME280;40450;55.848;-3.572;2023-07-08T01:05:31;99192.14;;;19.03;70.70
54554;BME280;40450;55.848;-3.572;2023-07-08T01:08:03;99193.11;;;19.34;70.47
54554;BME280;40450;55.848;-3.572;2023-07-08T01:10:39;99192.38;;;18.82;71.10
54554;BME280;40450;55.848;-3.572;2023-07-08T01:13:04;99192.64;;;18.65;71.00
54554;BME280;40450;55.848;-3.572;2023-07-08T01:15:39;99198.17;;;19.49;69.67
54554;BME280;40450;55.848;-3.572;2023-07-08T01:18:04;99189.94;;;18.15;71.16
54554;BME280;40450;55.848;-3.572;2023-07-08T01:20:35;99188.50;;;18.76;70.80
54554;BME280;40450;55.848;-3.572;2023-07-08T01:23:04;99189.05;;;17.07;75.20
54554;BME280;40450;55.848;-3.572;2023-07-08T01:25:36;99187.50;;;17.81;73.53
54554;BME280;40450;55.848;-3.572;2023-07-08T01:28:10;99184.03;;;16.78;76.36
54554;BME280;40450;55.848;-3.572;2023-07-08T01:30:41;99184.66;;;15.89;80.21
54554;BME280;40450;55.848;-3.572;2023-07-08T01:33:17;99176.90;;;17.15;75.92
54554;BME280;40450;55.848;-3.572;2023-07-08T01:35:36;99179.08;;;17.04;76.41
54554;BME280;40450;55.848;-3.572;2023-07-08T01:38:15;99177.16;;;18.43;72.40
54554;BME280;40450;55.848;-3.572;2023-07-08T01:40:48;99177.33;;;18.95;70.23
54554;BME280;40450;55.848;-3.572;2023-07-08T01:43:11;99177.25;;;19.24;69.30
54554;BME280;40450;55.848;-3.572;2023-07-08T01:45:42;99176.16;;;18.47;71.85
54554;BME280;40450;55.848;-3.572;2023-07-08T01:48:14;99170.81;;;18.10;72.43
54554;BME280;40450;55.848;-3.572;2023-07-08T01:50:42;99169.55;;;18.03;72.57
54554;BME280;40450;55.848;-3.572;2023-07-08T01:53:10;99166.24;;;17.82;73.10
54554;BME280;40450;55.848;-3.572;2023-07-08T01:55:43;99163.20;;;18.70;71.84
54554;BME280;40450;55.848;-3.572;2023-07-08T01:58:17;99164.46;;;17.14;74.33
54554;BME280;40450;55.848;-3.572;2023-07-08T02:00:44;99166.59;;;16.32;77.28
54554;BME280;40450;55.848;-3.572;2023-07-08T02:03:09;99164.62;;;14.14;85.28
54554;BME280;40450;55.848;-3.572;2023-07-08T02:05:39;99159.29;;;13.99;86.41
54554;BME280;40450;55.848;-3.572;2023-07-08T02:08:10;99160.97;;;15.15;83.66
54554;BME280;40450;55.848;-3.572;2023-07-08T02:10:42;99155.26;;;15.80;81.57
54554;BME280;40450;55.848;-3.572;2023-07-08T02:13:10;99153.94;;;14.01;87.22
54554;BME280;40450;55.848;-3.572;2023-07-08T02:15:40;99154.90;;;13.40;88.75
54554;BME280;40450;55.848;-3.572;2023-07-08T02:18:10;99146.17;;;14.50;85.79
54554;BME280;40450;55.848;-3.572;2023-07-08T02:20:43;99140.89;;;15.67;83.36
54554;BME280;40450;55.848;-3.572;2023-07-08T02:23:14;99138.77;;;14.75;83.86
54554;BME280;40450;55.848;-3.572;2023-07-08T02:28:18;99137.99;;;12.82;90.98
54554;BME280;40450;55.848;-3.572;2023-07-08T02:30:42;99142.12;;;15.64;84.59
54554;BME280;40450;55.848;-3.572;2023-07-08T02:33:13;99137.70;;;16.69;79.03
54554;BME280;40450;55.848;-3.572;2023-07-08T02:35:48;99142.94;;;13.77;88.41
54554;BME280;40450;55.848;-3.572;2023-07-08T02:38:14;99143.48;;;16.02;82.64
54554;BME280;40450;55.848;-3.572;2023-07-08T02:40:49;99138.87;;;16.56;80.76
54554;BME280;40450;55.848;-3.572;2023-07-08T02:43:15;99134.77;;;17.76;77.69
54554;BME280;40450;55.848;-3.572;2023-07-08T02:45:49;99135.68;;;18.19;74.17
54554;BME280;40450;55.848;-3.572;2023-07-08T02:48:16;99134.14;;;18.41;74.16
54554;BME280;40450;55.848;-3.572;2023-07-08T02:50:46;99134.79;;;18.65;71.86
54554;BME280;40450;55.848;-3.572;2023-07-08T02:53:17;99133.76;;;18.53;70.95
54554;BME280;40450;55.848;-3.572;2023-07-08T02:55:47;99133.27;;;18.59;71.17
54554;BME280;40450;55.848;-3.572;2023-07-08T02:58:17;99131.29;;;18.84;69.74
54554;BME280;40450;55.848;-3.572;2023-07-08T03:00:52;99134.14;;;18.85;69.27
54554;BME280;40450;55.848;-3.572;2023-07-08T03:03:18;99140.92;;;15.84;77.22
54554;BME280;40450;55.848;-3.572;2023-07-08T03:05:54;99141.64;;;14.47;83.27
54554;BME280;40450;55.848;-3.572;2023-07-08T03:08:18;99145.35;;;14.39;84.82
54554;BME280;40450;55.848;-3.572;2023-07-08T03:10:54;99145.36;;;13.52;88.88
54554;BME280;40450;55.848;-3.572;2023-07-08T03:13:19;99146.12;;;15.35;83.90
54554;BME280;40450;55.848;-3.572;2023-07-08T03:15:49;99136.23;;;16.97;79.29
54554;BME280;40450;55.848;-3.572;2023-07-08T03:18:19;99132.84;;;16.45;78.01
54554;BME280;40450;55.848;-3.572;2023-07-08T03:20:50;99130.69;;;17.32;75.77
54554;BME280;40450;55.848;-3.572;2023-07-08T03:23:19;99129.32;;;16.27;77.62
54554;BME280;40450;55.848;-3.572;2023-07-08T03:25:50;99124.36;;;17.81;75.21
54554;BME280;40450;55.848;-3.572;2023-07-08T03:28:20;99126.23;;;17.68;73.57
54554;BME280;40450;55.848;-3.572;2023-07-08T03:30:52;99124.79;;;16.88;76.33
54554;BME280;40450;55.848;-3.572;2023-07-08T03:33:21;99127.70;;;15.46;81.98
54554;BME280;40450;55.848;-3.572;2023-07-08T03:35:56;99126.61;;;12.87;91.01
54554;BME280;40450;55.848;-3.572;2023-07-08T03:38:21;99126.27;;;15.67;83.49
54554;BME280;40450;55.848;-3.572;2023-07-08T03:40:51;99119.49;;;16.88;79.65
54554;BME280;40450;55.848;-3.572;2023-07-08T03:43:22;99122.86;;;17.71;77.42
54554;BME280;40450;55.848;-3.572;2023-07-08T03:45:52;99121.78;;;18.09;75.53
54554;BME280;40450;55.848;-3.572;2023-07-08T03:48:23;99122.77;;;18.27;74.04
54554;BME280;40450;55.848;-3.572;2023-07-08T03:50:53;99126.21;;;16.64;77.53
54554;BME280;40450;55.848;-3.572;2023-07-08T03:53:23;99131.98;;;15.33;81.39
54554;BME280;40450;55.848;-3.572;2023-07-08T03:55:53;99127.32;;;15.21;82.64
54554;BME280;40450;55.848;-3.572;2023-07-08T03:58:24;99126.16;;;14.46;85.01
54554;BME280;40450;55.848;-3.572;2023-07-08T04:00:54;99130.95;;;14.27;86.38
54554;BME280;40450;55.848;-3.572;2023-07-08T04:03:25;99134.25;;;12.49;92.89
54554;BME280;40450;55.848;-3.572;2023-07-08T04:05:55;99138.10;;;12.26;94.07
54554;BME280;40450;55.848;-3.572;2023-07-08T04:08:25;99135.60;;;13.33;91.11
54554;BME280;40450;55.848;-3.572;2023-07-08T04:10:56;99139.78;;;12.50;93.39
54554;BME280;40450;55.848;-3.572;2023-07-08T04:13:26;99139.76;;;13.15;91.36
54554;BME280;40450;55.848;-3.572;2023-07-08T04:15:58;99140.42;;;15.52;86.82
54554;BME280;40450;55.848;-3.572;2023-07-08T04:18:32;99133.19;;;16.16;81.48
54554;BME280;40450;55.848;-3.572;2023-07-08T04:20:57;99135.55;;;12.17;94.58
54554;BME280;40450;55.848;-3.572;2023-07-08T04:23:27;99133.83;;;12.34;93.88
54554;BME280;40450;55.848;-3.572;2023-07-08T04:25:58;99125.35;;;14.19;88.30
54554;BME280;40450;55.848;-3.572;2023-07-08T04:28:34;99131.12;;;11.86;95.43
54554;BME280;40450;55.848;-3.572;2023-07-08T04:30:59;99129.37;;;15.01;89.07
54554;BME280;40450;55.848;-3.572;2023-07-08T04:33:30;99131.62;;;16.17;84.81
54554;BME280;40450;55.848;-3.572;2023-07-08T04:36:00;99135.95;;;15.22;84.45
54554;BME280;40450;55.848;-3.572;2023-07-08T04:38:31;99136.86;;;15.55;84.90
54554;BME280;40450;55.848;-3.572;2023-07-08T04:41:02;99131.96;;;13.96;88.71
54554;BME280;40450;55.848;-3.572;2023-07-08T04:43:31;99132.24;;;12.02;95.23
54554;BME280;40450;55.848;-3.572;2023-07-08T04:46:05;99130.71;;;11.39;97.43
54554;BME280;40450;55.848;-3.572;2023-07-08T04:48:32;99128.50;;;11.07;99.17
54554;BME280;40450;55.848;-3.572;2023-07-08T04:51:03;99126.43;;;9.36;100.00
54554;BME280;40450;55.848;-3.572;2023-07-08T04:53:33;99123.10;;;10.29;100.00
54554;BME280;40450;55.848;-3.572;2023-07-08T04:56:04;99112.85;;;12.85;95.91
54554;BME280;40450;55.848;-3.572;2023-07-08T04:58:34;99114.21;;;12.45;95.78
54554;BME280;40450;55.848;-3.572;2023-07-08T05:01:04;99113.95;;;10.33;100.00
54554;BME280;40450;55.848;-3.572;2023-07-08T05:03:34;99119.42;;;11.26;99.84
54554;BME280;40450;55.848;-3.572;2023-07-08T05:06:05;99110.20;;;12.62;96.37
54554;BME280;40450;55.848;-3.572;2023-07-08T05:08:35;99108.45;;;13.88;93.73
54554;BME280;40450;55.848;-3.572;2023-07-08T05:11:06;99109.26;;;15.73;91.06
54554;BME280;40450;55.848;-3.572;2023-07-08T05:13:36;99109.92;;;14.44;90.94
54554;BME280;40450;55.848;-3.572;2023-07-08T05:16:07;99106.17;;;16.15;85.76
54554;BME280;40450;55.848;-3.572;2023-07-08T05:18:38;99113.06;;;12.87;94.87
54554;BME280;40450;55.848;-3.572;2023-07-08T05:21:10;99113.37;;;13.36;93.21
54554;BME280;40450;55.848;-3.572;2023-07-08T05:23:39;99108.12;;;13.93;93.94
54554;BME280;40450;55.848;-3.572;2023-07-08T05:26:09;99104.62;;;14.02;93.55
54554;BME280;40450;55.848;-3.572;2023-07-08T05:28:40;99103.16;;;15.70;89.96
54554;BME280;40450;55.848;-3.572;2023-07-08T05:31:11;99104.72;;;14.55;90.24
54554;BME280;40450;55.848;-3.572;2023-07-08T05:33:40;99100.94;;;16.06;88.54
54554;BME280;40450;55.848;-3.572;2023-07-08T05:36:10;99107.05;;;15.94;87.19
54554;BME280;40450;55.848;-3.572;2023-07-08T05:38:41;99096.50;;;16.27;85.66
54554;BME280;40450;55.848;-3.572;2023-07-08T05:41:11;99087.66;;;17.06;84.47
54554;BME280;40450;55.848;-3.572;2023-07-08T05:43:42;99082.21;;;18.01;83.71
54554;BME280;40450;55.848;-3.572;2023-07-08T05:46:12;99082.44;;;18.15;80.17
54554;BME280;40450;55.848;-3.572;2023-07-08T05:48:42;99084.42;;;18.65;78.68
54554;BME280;40450;55.848;-3.572;2023-07-08T05:51:13;99084.39;;;18.93;75.90
54554;BME280;40450;55.848;-3.572;2023-07-08T05:53:43;99086.85;;;19.34;77.68
54554;BME280;40450;55.848;-3.572;2023-07-08T05:56:14;99088.82;;;19.69;75.90
54554;BME280;40450;55.848;-3.572;2023-07-08T05:58:44;99088.55;;;19.21;75.67
54554;BME280;40450;55.848;-3.572;2023-07-08T06:01:15;99088.45;;;19.29;73.63
54554;BME280;40450;55.848;-3.572;2023-07-08T06:03:45;99082.61;;;19.47;73.69
54554;BME280;40450;55.848;-3.572;2023-07-08T06:06:16;99080.49;;;18.66;74.20
54554;BME280;40450;55.848;-3.572;2023-07-08T06:08:46;99080.39;;;19.48;72.16
54554;BME280;40450;55.848;-3.572;2023-07-08T06:11:17;99069.46;;;20.09;71.63
54554;BME280;40450;55.848;-3.572;2023-07-08T06:13:47;99065.40;;;20.61;67.44
54554;BME280;40450;55.848;-3.572;2023-07-08T06:16:17;99067.62;;;20.79;68.95
54554;BME280;40450;55.848;-3.572;2023-07-08T06:18:47;99070.54;;;20.02;69.42
54554;BME280;40450;55.848;-3.572;2023-07-08T06:21:17;99066.84;;;19.91;69.14
54554;BME280;40450;55.848;-3.572;2023-07-08T06:23:48;99066.45;;;20.61;66.84
54554;BME280;40450;55.848;-3.572;2023-07-08T06:26:18;99061.23;;;20.72;65.60
54554;BME280;40450;55.848;-3.572;2023-07-08T06:28:49;99054.61;;;20.92;63.11
54554;BME280;40450;55.848;-3.572;2023-07-08T06:31:19;99056.51;;;20.51;63.39
54554;BME280;40450;55.848;-3.572;2023-07-08T06:33:50;99055.12;;;20.67;64.57
54554;BME280;40450;55.848;-3.572;2023-07-08T06:36:21;99054.20;;;21.05;63.60
54554;BME280;40450;55.848;-3.572;2023-07-08T06:38:51;99051.76;;;20.96;62.01
54554;BME280;40450;55.848;-3.572;2023-07-08T06:41:21;99045.96;;;20.40;62.91
54554;BME280;40450;55.848;-3.572;2023-07-08T06:43:51;99045.00;;;21.13;62.79
54554;BME280;40450;55.848;-3.572;2023-07-08T06:46:22;99036.34;;;21.17;61.44
54554;BME280;40450;55.848;-3.572;2023-07-08T06:48:52;99030.37;;;21.03;62.36
54554;BME280;40450;55.848;-3.572;2023-07-08T06:51:22;99034.62;;;21.05;62.22
54554;BME280;40450;55.848;-3.572;2023-07-08T06:53:53;99035.33;;;20.65;62.58
54554;BME280;40450;55.848;-3.572;2023-07-08T06:56:24;99034.12;;;21.25;61.34
54554;BME280;40450;55.848;-3.572;2023-07-08T06:58:54;99027.08;;;21.15;61.19
54554;BME280;40450;55.848;-3.572;2023-07-08T07:01:25;99024.91;;;21.36;60.02
54554;BME280;40450;55.848;-3.572;2023-07-08T07:03:55;99028.47;;;21.13;59.96
54554;BME280;40450;55.848;-3.572;2023-07-08T07:06:27;99023.92;;;21.68;59.75
54554;BME280;40450;55.848;-3.572;2023-07-08T07:09:01;99017.81;;;21.77;59.15
54554;BME280;40450;55.848;-3.572;2023-07-08T07:11:26;99014.59;;;21.69;59.78
54554;BME280;40450;55.848;-3.572;2023-07-08T07:13:57;99015.54;;;21.52;60.08
54554;BME280;40450;55.848;-3.572;2023-07-08T07:16:27;99019.30;;;20.81;61.41
54554;BME280;40450;55.848;-3.572;2023-07-08T07:18:57;99012.75;;;21.10;60.68
54554;BME280;40450;55.848;-3.572;2023-07-08T07:21:28;99018.27;;;21.07;60.89
54554;BME280;40450;55.848;-3.572;2023-07-08T07:23:58;99012.13;;;21.19;60.45
54554;BME280;40450;55.848;-3.572;2023-07-08T07:26:28;99015.05;;;21.59;61.31
54554;BME280;40450;55.848;-3.572;2023-07-08T07:28:58;99021.30;;;21.34;60.08
54554;BME280;40450;55.848;-3.572;2023-07-08T07:31:29;99020.74;;;21.29;60.20
54554;BME280;40450;55.848;-3.572;2023-07-08T07:34:01;99019.23;;;21.27;60.45
54554;BME280;40450;55.848;-3.572;2023-07-08T07:36:31;99018.11;;;21.89;59.49
54554;BME280;40450;55.848;-3.572;2023-07-08T07:39:00;99023.98;;;22.52;58.09
54554;BME280;40450;55.848;-3.572;2023-07-08T07:41:30;99024.98;;;23.00;57.75
54554;BME280;40450;55.848;-3.572;2023-07-08T07:44:01;99033.92;;;22.39;57.74
54554;BME280;40450;55.848;-3.572;2023-07-08T07:46:31;99029.41;;;22.56;58.02
54554;BME280;40450;55.848;-3.572;2023-07-08T07:49:01;99038.34;;;22.59;57.94
54554;BME280;40450;55.848;-3.572;2023-07-08T07:51:33;99039.92;;;22.33;57.50
54554;BME280;40450;55.848;-3.572;2023-07-08T07:54:03;99044.91;;;21.85;59.71
54554;BME280;40450;55.848;-3.572;2023-07-08T07:56:33;99056.72;;;21.99;58.98
54554;BME280;40450;55.848;-3.572;2023-07-08T07:59:04;99059.19;;;22.43;58.93
54554;BME280;40450;55.848;-3.572;2023-07-08T08:01:34;99055.48;;;22.37;58.77
54554;BME280;40450;55.848;-3.572;2023-07-08T08:04:05;99048.01;;;22.66;58.97
54554;BME280;40450;55.848;-3.572;2023-07-08T08:06:40;99053.41;;;21.88;60.80
54554;BME280;40450;55.848;-3.572;2023-07-08T08:09:07;99066.22;;;22.41;58.71
54554;BME280;40450;55.848;-3.572;2023-07-08T08:11:37;99067.22;;;22.60;58.75
54554;BME280;40450;55.848;-3.572;2023-07-08T08:14:07;99073.07;;;22.71;59.20
54554;BME280;40450;55.848;-3.572;2023-07-08T08:16:38;99079.93;;;23.19;58.50
54554;BME280;40450;55.848;-3.572;2023-07-08T08:19:08;99092.54;;;22.87;60.17
54554;BME280;40450;55.848;-3.572;2023-07-08T08:21:39;99092.65;;;22.88;59.24
54554;BME280;40450;55.848;-3.572;2023-07-08T08:24:10;99080.21;;;22.74;58.03
54554;BME280;40450;55.848;-3.572;2023-07-08T08:26:39;99082.30;;;23.17;57.45
54554;BME280;40450;55.848;-3.572;2023-07-08T08:29:10;99083.24;;;23.29;57.07
54554;BME280;40450;55.848;-3.572;2023-07-08T08:31:40;99087.97;;;23.66;55.88
54554;BME280;40450;55.848;-3.572;2023-07-08T08:34:11;99078.68;;;23.47;55.76
54554;BME280;40450;55.848;-3.572;2023-07-08T08:36:41;99082.39;;;23.74;55.24
54554;BME280;40450;55.848;-3.572;2023-07-08T08:39:13;99083.28;;;24.11;55.12
54554;BME280;40450;55.848;-3.572;2023-07-08T08:41:43;99091.02;;;23.72;55.27
54554;BME280;40450;55.848;-3.572;2023-07-08T08:44:15;99086.59;;;23.63;55.73
54554;BME280;40450;55.848;-3.572;2023-07-08T08:46:48;99095.86;;;23.57;56.70
54554;BME280;40450;55.848;-3.572;2023-07-08T08:49:18;99097.04;;;23.45;60.81
54554;BME280;40450;55.848;-3.572;2023-07-08T08:51:43;99099.62;;;22.82;64.14
54554;BME280;40450;55.848;-3.572;2023-07-08T08:54:18;99104.24;;;22.09;65.44
54554;BME280;40450;55.848;-3.572;2023-07-08T08:56:52;99104.82;;;22.59;65.65
54554;BME280;40450;55.848;-3.572;2023-07-08T08:59:19;99081.78;;;22.33;65.47
54554;BME280;40450;55.848;-3.572;2023-07-08T09:01:46;99076.29;;;21.59;68.19
54554;BME280;40450;55.848;-3.572;2023-07-08T09:04:20;99080.59;;;21.67;69.00
54554;BME280;40450;55.848;-3.572;2023-07-08T09:06:45;99086.24;;;21.82;70.89
54554;BME280;40450;55.848;-3.572;2023-07-08T09:09:20;99083.66;;;21.66;72.29
54554;BME280;40450;55.848;-3.572;2023-07-08T09:11:52;99082.80;;;21.89;71.83
54554;BME280;40450;55.848;-3.572;2023-07-08T09:14:22;99077.99;;;22.54;71.09
54554;BME280;40450;55.848;-3.572;2023-07-08T09:16:54;99070.31;;;22.69;69.96
54554;BME280;40450;55.848;-3.572;2023-07-08T09:19:24;99069.65;;;23.33;69.24
54554;BME280;40450;55.848;-3.572;2023-07-08T09:21:51;99066.49;;;22.98;68.41
54554;BME280;40450;55.848;-3.572;2023-07-08T09:24:24;99074.12;;;23.02;67.56
54554;BME280;40450;55.848;-3.572;2023-07-08T09:26:49;99071.55;;;23.45;67.69
54554;BME280;40450;55.848;-3.572;2023-07-08T09:29:18;99074.72;;;22.96;69.13
54554;BME280;40450;55.848;-3.572;2023-07-08T09:31:49;99077.37;;;22.89;68.49
54554;BME280;40450;55.848;-3.572;2023-07-08T09:34:22;99070.44;;;22.63;68.91
54554;BME280;40450;55.848;-3.572;2023-07-08T09:36:51;99069.98;;;22.90;68.49
54554;BME280;40450;55.848;-3.572;2023-07-08T09:39:20;99074.03;;;23.37;67.01
54554;BME280;40450;55.848;-3.572;2023-07-08T09:41:50;99075.56;;;23.16;67.15
54554;BME280;40450;55.848;-3.572;2023-07-08T09:44:26;99076.73;;;23.21;65.57
54554;BME280;40450;55.848;-3.572;2023-07-08T09:46:50;99078.78;;;23.33;66.83
54554;BME280;40450;55.848;-3.572;2023-07-08T09:49:24;99069.60;;;23.00;66.45
54554;BME280;40450;55.848;-3.572;2023-07-08T09:51:52;99069.55;;;23.46;66.09
54554;BME280;40450;55.848;-3.572;2023-07-08T09:54:23;99062.41;;;23.47;64.94
54554;BME280;40450;55.848;-3.572;2023-07-08T09:56:59;99074.85;;;23.31;64.59
54554;BME280;40450;55.848;-3.572;2023-07-08T09:59:28;99069.85;;;23.93;63.62
54554;BME280;40450;55.848;-3.572;2023-07-08T10:01:53;99081.19;;;23.65;61.71
54554;BME280;40450;55.848;-3.572;2023-07-08T10:04:23;99085.20;;;23.46;61.32
54554;BME280;40450;55.848;-3.572;2023-07-08T10:07:02;99093.11;;;23.44;62.07
54554;BME280;40450;55.848;-3.572;2023-07-08T10:09:25;99090.44;;;23.86;61.06
54554;BME280;40450;55.848;-3.572;2023-07-08T10:11:58;99089.01;;;24.25;60.48
54554;BME280;40450;55.848;-3.572;2023-07-08T10:14:33;99084.25;;;24.26;60.23
54554;BME280;40450;55.848;-3.572;2023-07-08T10:16:59;99082.15;;;24.36;60.40
54554;BME280;40450;55.848;-3.572;2023-07-08T10:19:24;99080.14;;;24.35;62.28
54554;BME280;40450;55.848;-3.572;2023-07-08T10:22:05;99090.71;;;24.31;60.58
54554;BME280;40450;55.848;-3.572;2023-07-08T10:24:37;99089.37;;;24.26;59.84
54554;BME280;40450;55.848;-3.572;2023-07-08T10:27:03;99083.49;;;24.08;61.41
54554;BME280;40450;55.848;-3.572;2023-07-08T10:29:33;99096.68;;;24.04;60.46
54554;BME280;40450;55.848;-3.572;2023-07-08T10:32:07;99102.40;;;23.67;59.99
54554;BME280;40450;55.848;-3.572;2023-07-08T10:34:36;99099.72;;;24.02;61.24
54554;BME280;40450;55.848;-3.572;2023-07-08T10:37:03;99109.16;;;23.85;61.42
54554;BME280;40450;55.848;-3.572;2023-07-08T10:39:44;99105.61;;;24.57;59.01
54554;BME280;40450;55.848;-3.572;2023-07-08T10:42:05;99118.05;;;24.94;57.65
54554;BME280;40450;55.848;-3.572;2023-07-08T10:44:33;99122.28;;;24.14;60.52
54554;BME280;40450;55.848;-3.572;2023-07-08T10:47:08;99125.33;;;24.13;61.38
54554;BME280;40450;55.848;-3.572;2023-07-08T10:49:44;99133.00;;;24.47;59.57
54554;BME280;40450;55.848;-3.572;2023-07-08T10:52:13;99133.42;;;25.20;58.88
54554;BME280;40450;55.848;-3.572;2023-07-08T10:54:46;99147.50;;;25.12;58.12
54554;BME280;40450;55.848;-3.572;2023-07-08T10:57:10;99154.37;;;24.29;60.38
54554;BME280;40450;55.848;-3.572;2023-07-08T10:59:43;99159.77;;;25.35;59.22
54554;BME280;40450;55.848;-3.572;2023-07-08T11:02:17;99165.89;;;25.74;58.79
54554;BME280;40450;55.848;-3.572;2023-07-08T11:04:44;99171.44;;;25.89;57.47
54554;BME280;40450;55.848;-3.572;2023-07-08T11:07:10;99173.75;;;26.50;56.12
54554;BME280;40450;55.848;-3.572;2023-07-08T11:09:39;99176.89;;;26.36;57.13
54554;BME280;40450;55.848;-3.572;2023-07-08T11:12:10;99179.23;;;26.99;56.42
54554;BME280;40450;55.848;-3.572;2023-07-08T11:14:42;99182.64;;;26.07;57.04
54554;BME280;40450;55.848;-3.572;2023-07-08T11:17:11;99182.25;;;25.60;56.70
54554;BME280;40450;55.848;-3.572;2023-07-08T11:19:40;99183.81;;;26.22;56.92
54554;BME280;40450;55.848;-3.572;2023-07-08T11:22:09;99181.71;;;26.37;55.74
54554;BME280;40450;55.848;-3.572;2023-07-08T11:24:42;99193.87;;;26.01;56.08
54554;BME280;40450;55.848;-3.572;2023-07-08T11:27:10;99193.46;;;25.54;57.30
54554;BME280;40450;55.848;-3.572;2023-07-08T11:29:39;99191.21;;;26.03;55.93
54554;BME280;40450;55.848;-3.572;2023-07-08T11:32:11;99193.00;;;26.64;54.44
54554;BME280;40450;55.848;-3.572;2023-07-08T11:34:38;99189.25;;;26.46;55.54
54554;BME280;40450;55.848;-3.572;2023-07-08T11:37:08;99190.12;;;26.36;55.13
54554;BME280;40450;55.848;-3.572;2023-07-08T11:39:41;99203.69;;;26.49;53.99
54554;BME280;40450;55.848;-3.572;2023-07-08T11:42:16;99203.49;;;27.47;52.89
54554;BME280;40450;55.848;-3.572;2023-07-08T11:44:43;99205.68;;;27.93;51.12
54554;BME280;40450;55.848;-3.572;2023-07-08T11:47:16;99218.41;;;27.87;50.60
54554;BME280;40450;55.848;-3.572;2023-07-08T11:49:40;99224.92;;;26.63;52.09
54554;BME280;40450;55.848;-3.572;2023-07-08T11:52:14;99239.17;;;24.57;59.90
54554;BME280;40450;55.848;-3.572;2023-07-08T11:54:45;99243.05;;;24.04;60.51
54554;BME280;40450;55.848;-3.572;2023-07-08T11:57:18;99245.01;;;23.35;64.33
54554;BME280;40450;55.848;-3.572;2023-07-08T11:59:47;99242.34;;;23.23;65.88
54554;BME280;40450;55.848;-3.572;2023-07-08T12:02:15;99242.59;;;22.56;67.79
54554;BME280;40450;55.848;-3.572;2023-07-08T12:04:56;99243.60;;;23.09;66.75
54554;BME280;40450;55.848;-3.572;2023-07-08T12:07:19;99242.70;;;22.58;67.21
54554;BME280;40450;55.848;-3.572;2023-07-08T12:09:48;99248.32;;;22.70;69.38
54554;BME280;40450;55.848;-3.572;2023-07-08T12:12:21;99248.81;;;23.40;66.53
54554;BME280;40450;55.848;-3.572;2023-07-08T12:14:46;99253.38;;;23.03;68.10
54554;BME280;40450;55.848;-3.572;2023-07-08T12:17:16;99256.77;;;22.61;67.99
54554;BME280;40450;55.848;-3.572;2023-07-08T12:19:47;99260.97;;;23.58;66.16
54554;BME280;40450;55.848;-3.572;2023-07-08T12:22:16;99244.94;;;23.03;66.48
54554;BME280;40450;55.848;-3.572;2023-07-08T12:24:47;99245.41;;;23.58;63.85
54554;BME280;40450;55.848;-3.572;2023-07-08T12:27:17;99252.55;;;24.00;65.20
54554;BME280;40450;55.848;-3.572;2023-07-08T12:29:47;99253.41;;;23.96;64.40
54554;BME280;40450;55.848;-3.572;2023-07-08T12:32:18;99258.30;;;22.86;66.80
54554;BME280;40450;55.848;-3.572;2023-07-08T12:34:48;99255.41;;;22.90;67.41
54554;BME280;40450;55.848;-3.572;2023-07-08T12:37:18;99261.38;;;23.17;67.14
54554;BME280;40450;55.848;-3.572;2023-07-08T12:39:54;99256.93;;;23.18;67.51
54554;BME280;40450;55.848;-3.572;2023-07-08T12:42:19;99257.55;;;23.21;67.28
54554;BME280;40450;55.848;-3.572;2023-07-08T12:44:49;99254.63;;;23.38;67.30
54554;BME280;40450;55.848;-3.572;2023-07-08T12:47:20;99259.21;;;23.70;64.36
54554;BME280;40450;55.848;-3.572;2023-07-08T12:49:50;99255.00;;;23.76;65.25
54554;BME280;40450;55.848;-3.572;2023-07-08T12:52:22;99257.88;;;24.30;65.28
54554;BME280;40450;55.848;-3.572;2023-07-08T12:54:50;99260.75;;;24.47;64.99
54554;BME280;40450;55.848;-3.572;2023-07-08T12:57:21;99255.99;;;24.59;62.73
54554;BME280;40450;55.848;-3.572;2023-07-08T12:59:51;99257.09;;;24.35;61.42
54554;BME280;40450;55.848;-3.572;2023-07-08T13:02:22;99258.26;;;23.49;64.76
54554;BME280;40450;55.848;-3.572;2023-07-08T13:04:56;99265.13;;;23.76;65.37
54554;BME280;40450;55.848;-3.572;2023-07-08T13:07:34;99261.66;;;23.41;66.75
54554;BME280;40450;55.848;-3.572;2023-07-08T13:09:54;99266.11;;;24.04;65.49